createdAt,value
2023-05-21T00:04:08.070Z,51.49
2023-05-21T00:09:10.797Z,51.46
2023-05-21T00:14:13.911Z,51.59
2023-05-21T00:19:16.411Z,51.57
2023-05-21T00:24:18.317Z,51.90
2023-05-21T00:29:20.199Z,51.93
2023-05-21T00:34:22.347Z,51.91
2023-05-21T00:39:24.727Z,51.91
2023-05-21T00:44:27.260Z,52.04
2023-05-21T00:49:30.761Z,52.11
2023-05-21T00:54:33.008Z,52.29
2023-05-21T00:59:34.922Z,52.22
2023-05-21T01:04:37.209Z,52.14
2023-05-21T01:09:43.665Z,52.29
2023-05-21T01:14:45.950Z,52.26
2023-05-21T01:19:48.260Z,52.25
2023-05-21T01:24:50.568Z,52.59
2023-05-21T01:29:52.487Z,52.67
2023-05-21T01:35:03.364Z,52.38
2023-05-21T01:40:21.125Z,52.66
2023-05-21T01:45:25.952Z,52.75
2023-05-21T01:50:28.831Z,52.85
2023-05-21T01:55:31.388Z,52.68
2023-05-21T02:00:34.737Z,53.33
2023-05-21T02:05:36.745Z,53.63
2023-05-21T02:10:38.940Z,53.80
2023-05-21T02:15:40.824Z,53.74
2023-05-21T02:20:43.649Z,53.92
2023-05-21T02:25:45.709Z,53.83
2023-05-21T02:30:47.648Z,54.07
2023-05-21T02:35:49.629Z,54.23
2023-05-21T02:40:51.966Z,54.41
2023-05-21T02:45:54.317Z,54.34
2023-05-21T02:50:56.522Z,54.51
2023-05-21T02:55:58.449Z,54.65
2023-05-21T03:01:00.539Z,54.70
2023-05-21T03:06:03.318Z,54.69
2023-05-21T03:11:05.293Z,54.67
2023-05-21T03:16:07.337Z,54.62
2023-05-21T03:21:09.273Z,54.49
2023-05-21T03:26:11.660Z,54.45
2023-05-21T03:31:13.560Z,54.35
2023-05-21T03:36:33.981Z,54.25
2023-05-21T03:41:37.575Z,54.50
2023-05-21T03:46:51.523Z,54.55
2023-05-21T03:52:05.677Z,54.69
2023-05-21T03:57:07.820Z,54.65
2023-05-21T04:02:09.970Z,54.80
2023-05-21T04:07:14.789Z,55.02
2023-05-21T04:12:18.192Z,55.24
2023-05-21T04:17:21.153Z,55.36
2023-05-21T04:22:26.651Z,55.50
2023-05-21T04:27:28.866Z,55.71
2023-05-21T04:32:33.516Z,55.56
2023-05-21T04:37:36.391Z,55.77
2023-05-21T04:42:39.188Z,55.59
2023-05-21T04:47:43.710Z,55.43
2023-05-21T04:52:45.752Z,55.44
2023-05-21T04:57:47.633Z,55.46
2023-05-21T05:02:49.725Z,55.36
2023-05-21T05:07:51.803Z,55.45
2023-05-21T05:12:53.754Z,55.17
2023-05-21T05:17:56.760Z,55.26
2023-05-21T05:22:58.956Z,55.26
2023-05-21T05:28:00.967Z,55.04
2023-05-21T05:33:02.991Z,54.97
2023-05-21T05:38:05.980Z,54.84
2023-05-21T05:43:09.174Z,54.52
2023-05-21T05:48:12.145Z,54.26
2023-05-21T05:53:14.762Z,54.04
2023-05-21T05:58:17.010Z,53.89
2023-05-21T06:03:39.257Z,53.73
2023-05-21T06:08:46.659Z,53.34
2023-05-21T06:13:48.588Z,53.18
2023-05-21T06:18:52.389Z,53.02
2023-05-21T06:23:54.431Z,52.67
2023-05-21T06:28:56.704Z,52.64
2023-05-21T06:34:00.603Z,52.54
2023-05-21T06:39:03.502Z,52.58
2023-05-21T06:44:06.240Z,52.41
2023-05-21T06:49:26.698Z,52.51
2023-05-21T06:54:28.667Z,52.54
2023-05-21T06:59:30.728Z,52.53
2023-05-21T07:04:35.326Z,52.56
2023-05-21T07:09:37.301Z,52.39
2023-05-21T07:14:39.362Z,52.43
2023-05-21T07:19:41.667Z,52.16
2023-05-21T07:24:43.904Z,52.21
2023-05-21T07:29:46.591Z,52.20
2023-05-21T07:34:50.059Z,52.10
2023-05-21T07:39:52.920Z,52.06
2023-05-21T07:44:55.077Z,52.01
2023-05-21T07:50:01.618Z,51.73
2023-05-21T07:55:05.114Z,51.76
2023-05-21T08:00:11.181Z,51.53
2023-05-21T08:05:25.723Z,51.21
2023-05-21T08:10:27.753Z,51.29
2023-05-21T08:15:29.736Z,50.81
2023-05-21T08:20:35.780Z,50.68
2023-05-21T08:25:37.940Z,50.69
2023-05-21T08:30:40.494Z,50.33
2023-05-21T08:35:42.395Z,50.18
2023-05-21T08:40:59.074Z,50.08
2023-05-21T08:46:04.755Z,49.68
2023-05-21T08:51:10.420Z,49.20
2023-05-21T08:56:18.385Z,48.54
2023-05-21T09:01:28.716Z,47.91
2023-05-21T09:06:37.873Z,47.66
2023-05-21T09:11:42.458Z,46.75
2023-05-21T09:16:48.811Z,46.36
2023-05-21T09:21:55.206Z,45.92
2023-05-21T09:27:01.993Z,45.56
2023-05-21T09:32:08.093Z,44.94
2023-05-21T09:37:26.626Z,44.82
2023-05-21T09:42:30.142Z,44.17
2023-05-21T09:47:32.567Z,44.35
2023-05-21T09:52:36.861Z,43.45
2023-05-21T09:57:42.780Z,42.99
2023-05-21T10:02:49.037Z,43.01
2023-05-21T10:07:53.758Z,43.13
2023-05-21T10:13:04.383Z,42.38
2023-05-21T10:18:08.536Z,41.94
2023-05-21T10:23:10.823Z,42.10
2023-05-21T10:28:17.093Z,41.93
2023-05-21T10:33:20.275Z,41.67
2023-05-21T10:38:22.746Z,41.28
2023-05-21T10:43:30.925Z,41.28
2023-05-21T10:48:57.404Z,40.85
2023-05-21T10:54:35.217Z,40.59
2023-05-21T10:59:44.026Z,40.32
2023-05-21T11:04:49.483Z,40.11
2023-05-21T11:09:51.619Z,39.87
2023-05-21T11:14:58.142Z,39.70
2023-05-21T11:20:05.422Z,39.38
2023-05-21T11:25:08.343Z,39.54
2023-05-21T11:30:15.939Z,38.98
2023-05-21T11:35:17.933Z,38.82
2023-05-21T11:40:25.825Z,38.53
2023-05-21T11:45:32.753Z,38.46
2023-05-21T11:50:35.496Z,37.92
2023-05-21T11:55:43.730Z,37.54
2023-05-21T12:00:45.897Z,37.40
2023-05-21T12:05:49.033Z,37.17
2023-05-21T12:10:59.183Z,36.66
2023-05-21T12:16:05.968Z,35.98
2023-05-21T12:21:11.073Z,35.71
2023-05-21T12:26:14.380Z,35.66
2023-05-21T12:31:16.415Z,35.71
2023-05-21T12:36:34.428Z,35.81
2023-05-21T12:41:36.427Z,36.50
2023-05-21T12:46:38.544Z,36.46
2023-05-21T12:51:41.093Z,36.47
2023-05-21T12:56:46.504Z,36.48
2023-05-21T13:01:49.040Z,36.80
2023-05-21T13:06:51.744Z,36.61
2023-05-21T13:11:54.071Z,36.60
2023-05-21T13:16:57.762Z,36.40
2023-05-21T13:21:59.920Z,36.47
2023-05-21T13:27:02.430Z,36.60
2023-05-21T13:32:05.111Z,36.68
2023-05-21T13:37:07.955Z,36.32
2023-05-21T13:42:09.832Z,36.10
2023-05-21T13:47:12.543Z,36.14
2023-05-21T13:52:15.182Z,35.89
2023-05-21T13:57:17.085Z,36.49
2023-05-21T14:02:19.313Z,36.53
2023-05-21T14:07:22.314Z,36.70
2023-05-21T14:12:24.524Z,36.98
2023-05-21T14:17:26.515Z,36.66
2023-05-21T14:22:28.470Z,36.51
2023-05-21T14:27:30.504Z,35.99
2023-05-21T14:32:32.362Z,35.82
2023-05-21T14:37:34.288Z,35.30
2023-05-21T14:42:36.780Z,35.64
2023-05-21T14:47:38.678Z,35.51
2023-05-21T14:52:42.669Z,35.03
2023-05-21T14:57:45.142Z,34.31
2023-05-21T15:02:47.562Z,33.69
2023-05-21T15:07:49.758Z,33.61
2023-05-21T15:12:52.506Z,33.37
2023-05-21T15:17:54.425Z,33.60
2023-05-21T15:23:08.744Z,33.86
2023-05-21T15:28:17.639Z,34.07
2023-05-21T15:33:19.671Z,34.27
2023-05-21T15:38:25.206Z,34.29
2023-05-21T15:43:27.749Z,34.17
2023-05-21T15:48:30.058Z,34.12
2023-05-21T15:53:32.057Z,33.91
2023-05-21T15:58:34.373Z,33.78
2023-05-21T16:03:36.380Z,33.66
2023-05-21T16:08:38.413Z,33.65
2023-05-21T16:13:41.404Z,33.81
2023-05-21T16:18:43.657Z,33.68
2023-05-21T16:23:45.836Z,33.76
2023-05-21T16:28:48.361Z,33.86
2023-05-21T16:33:50.343Z,33.98
2023-05-21T16:38:52.878Z,33.93
2023-05-21T16:43:55.448Z,33.89
2023-05-21T16:48:57.325Z,33.84
2023-05-21T16:53:59.223Z,34.01
2023-05-21T16:59:01.219Z,33.93
2023-05-21T17:04:03.636Z,34.05
2023-05-21T17:09:06.412Z,34.20
2023-05-21T17:14:08.364Z,34.08
2023-05-21T17:19:10.644Z,34.00
2023-05-21T17:24:12.893Z,34.04
2023-05-21T17:29:14.791Z,34.13
2023-05-21T17:34:18.075Z,34.18
2023-05-21T17:39:20.292Z,34.16
2023-05-21T17:44:22.309Z,34.21
2023-05-21T17:49:24.205Z,34.42
2023-05-21T17:54:26.173Z,34.35
2023-05-21T17:59:28.069Z,34.34
2023-05-21T18:04:29.991Z,34.57
2023-05-21T18:09:32.140Z,34.70
2023-05-21T18:14:34.103Z,34.65
2023-05-21T18:19:36.576Z,35.33
2023-05-21T18:24:40.137Z,35.47
2023-05-21T18:29:42.366Z,35.73
2023-05-21T18:34:44.547Z,35.72
2023-05-21T18:39:46.752Z,35.81
2023-05-21T18:44:51.920Z,35.86
2023-05-21T18:49:54.341Z,36.36
2023-05-21T18:54:56.393Z,36.24
2023-05-21T19:00:00.175Z,36.47
2023-05-21T19:05:03.009Z,36.37
2023-05-21T19:10:05.612Z,36.50
2023-05-21T19:15:08.363Z,36.90
2023-05-21T19:20:10.997Z,36.99
2023-05-21T19:25:13.295Z,37.11
2023-05-21T19:30:15.732Z,37.37
2023-05-21T19:35:17.790Z,37.37
2023-05-21T19:40:22.996Z,37.59
2023-05-21T19:45:25.524Z,37.84
2023-05-21T19:50:28.869Z,37.56
2023-05-21T19:55:35.548Z,37.65
2023-05-21T20:00:37.780Z,37.95
2023-05-21T20:05:39.963Z,38.29
2023-05-21T20:10:42.756Z,38.34
2023-05-21T20:15:44.987Z,38.03
2023-05-21T20:20:47.528Z,38.23
2023-05-21T20:25:49.688Z,38.25
2023-05-21T20:30:54.030Z,38.51
2023-05-21T20:35:56.120Z,38.38
2023-05-21T20:40:58.470Z,38.55
2023-05-21T20:46:01.811Z,38.47
2023-05-21T20:51:04.802Z,38.77
2023-05-21T20:56:08.374Z,38.81
2023-05-21T21:01:10.812Z,38.79
2023-05-21T21:06:13.998Z,38.90
2023-05-21T21:11:16.442Z,38.94
2023-05-21T21:16:18.726Z,39.02
2023-05-21T21:21:20.615Z,39.20
2023-05-21T21:26:23.106Z,39.30
2023-05-21T21:31:25.152Z,39.34
2023-05-21T21:36:28.997Z,39.53
2023-05-21T21:41:30.957Z,39.63
2023-05-21T21:46:33.466Z,39.82
2023-05-21T21:51:35.504Z,39.88
2023-05-21T21:56:37.572Z,40.05
2023-05-21T22:01:39.659Z,40.15
2023-05-21T22:06:41.687Z,40.27
2023-05-21T22:11:43.676Z,40.46
2023-05-21T22:16:47.969Z,40.49
2023-05-21T22:21:50.268Z,40.83
2023-05-21T22:26:52.109Z,40.98
2023-05-21T22:31:54.023Z,41.02
2023-05-21T22:36:55.956Z,41.06
2023-05-21T22:41:57.910Z,41.32
2023-05-21T22:47:00.372Z,41.37
2023-05-21T22:52:05.356Z,41.54
2023-05-21T22:57:07.331Z,41.67
2023-05-21T23:02:09.474Z,41.81
2023-05-21T23:07:12.463Z,42.16
2023-05-21T23:12:14.465Z,42.25
2023-05-21T23:17:16.455Z,42.40
2023-05-21T23:22:19.481Z,42.69
2023-05-21T23:27:21.378Z,42.71
2023-05-21T23:32:23.812Z,42.86
2023-05-21T23:37:25.910Z,43.19
2023-05-21T23:42:27.890Z,43.38
2023-05-21T23:47:29.871Z,43.43
2023-05-21T23:52:31.866Z,43.55
2023-05-21T23:57:33.980Z,43.88
